createdAt,value
2017-08-15T00:00:05.528Z,23.3
2017-08-15T00:02:05.250Z,23.3
2017-08-15T00:04:05.131Z,23.3
2017-08-15T00:06:05.069Z,23.3
2017-08-15T00:08:07.503Z,23.2
2017-08-15T00:10:07.774Z,23.2
2017-08-15T00:12:05.662Z,23.2
2017-08-15T00:14:05.395Z,23.2
2017-08-15T00:16:05.081Z,23.2
2017-08-15T00:18:05.047Z,23.2
2017-08-15T00:20:07.278Z,23.2
2017-08-15T00:22:07.514Z,23.2
2017-08-15T00:24:08.064Z,23.2
2017-08-15T00:26:04.866Z,23.2
2017-08-15T00:28:05.648Z,23.2
2017-08-15T00:30:05.453Z,23.2
2017-08-15T00:32:05.255Z,23.2
2017-08-15T00:34:04.961Z,23.2
2017-08-15T00:36:04.795Z,23.1
2017-08-15T00:38:05.018Z,23.1
2017-08-15T00:40:04.753Z,23.1
2017-08-15T00:42:04.967Z,23.1
2017-08-15T00:44:05.256Z,23.1
2017-08-15T00:46:04.991Z,23.1
2017-08-15T00:48:04.875Z,23.1
2017-08-15T00:50:08.130Z,23
2017-08-15T00:52:04.885Z,23.1
2017-08-15T00:54:08.254Z,23.1
2017-08-15T00:56:04.958Z,23
2017-08-15T00:58:04.636Z,23
2017-08-15T01:00:05.473Z,23
2017-08-15T01:02:07.700Z,23
2017-08-15T01:04:05.368Z,23
2017-08-15T01:06:05.639Z,23
2017-08-15T01:08:05.397Z,23
2017-08-15T01:10:05.109Z,23
2017-08-15T01:12:04.928Z,23
2017-08-15T01:14:04.616Z,23
2017-08-15T01:16:05.350Z,22.9
2017-08-15T01:18:08.122Z,22.9
2017-08-15T01:20:05.315Z,22.9
2017-08-15T01:22:05.019Z,22.9
2017-08-15T01:24:04.980Z,22.9
2017-08-15T01:26:04.693Z,22.9
2017-08-15T01:28:05.581Z,22.9
2017-08-15T01:30:05.432Z,22.9
2017-08-15T01:32:07.834Z,22.9
2017-08-15T01:34:05.511Z,22.9
2017-08-15T01:36:05.335Z,22.9
2017-08-15T01:38:08.093Z,22.8
2017-08-15T01:40:04.847Z,22.8
2017-08-15T01:42:05.715Z,22.8
2017-08-15T01:44:05.140Z,22.8
2017-08-15T01:46:05.414Z,22.8
2017-08-15T01:48:05.157Z,22.8
2017-08-15T01:50:04.891Z,22.8
2017-08-15T01:52:12.729Z,22.8
2017-08-15T01:54:05.691Z,22.8
2017-08-15T01:56:10.448Z,22.8
2017-08-15T01:58:04.747Z,22.8
2017-08-15T02:00:05.554Z,22.8
2017-08-15T02:02:07.972Z,22.8
2017-08-15T02:04:05.066Z,22.8
2017-08-15T02:06:04.926Z,22.7
2017-08-15T02:08:05.174Z,22.7
2017-08-15T02:10:05.425Z,22.8
2017-08-15T02:12:07.810Z,22.7
2017-08-15T02:14:05.547Z,22.7
2017-08-15T02:16:07.767Z,22.7
2017-08-15T02:18:07.176Z,22.7
2017-08-15T02:20:04.903Z,22.7
2017-08-15T02:22:09.768Z,22.7
2017-08-15T02:24:10.331Z,22.7
2017-08-15T02:26:05.114Z,22.6
2017-08-15T02:28:07.392Z,22.6
2017-08-15T02:30:05.296Z,22.6
2017-08-15T02:32:05.034Z,22.7
2017-08-15T02:34:05.342Z,22.7
2017-08-15T02:36:05.309Z,22.7
2017-08-15T02:38:04.995Z,22.7
2017-08-15T02:40:04.692Z,22.6
2017-08-15T02:42:08.178Z,22.6
2017-08-15T02:44:07.574Z,22.6
2017-08-15T02:46:12.903Z,22.6
2017-08-15T02:48:04.769Z,22.6
2017-08-15T02:50:05.014Z,16.2
2017-08-15T02:52:05.144Z,22.6
2017-08-15T02:54:05.061Z,22.6
2017-08-15T02:56:04.786Z,22.5
2017-08-15T02:58:08.019Z,22.5
2017-08-15T03:00:05.085Z,22.5
2017-08-15T03:02:04.806Z,22.5
2017-08-15T03:04:05.571Z,22.5
2017-08-15T03:06:04.776Z,22.5
2017-08-15T03:08:07.643Z,22.5
2017-08-15T03:10:05.378Z,22.5
2017-08-15T03:12:04.683Z,22.5
2017-08-15T03:14:04.883Z,22.5
2017-08-15T03:16:04.645Z,22.5
2017-08-15T03:18:05.708Z,22.5
2017-08-15T03:20:07.959Z,22.4
2017-08-15T03:22:07.306Z,22.4
2017-08-15T03:24:05.210Z,22.4
2017-08-15T03:26:04.943Z,22.4
2017-08-15T03:28:07.234Z,22.4
2017-08-15T03:30:10.846Z,22.4
2017-08-15T03:32:05.592Z,22.4
2017-08-15T03:34:05.333Z,22.4
2017-08-15T03:36:05.049Z,22.4
2017-08-15T03:38:09.874Z,22.4
2017-08-15T03:40:05.239Z,22.4
2017-08-15T03:42:07.523Z,22.4
2017-08-15T03:44:05.256Z,22.4
2017-08-15T03:46:07.497Z,22.4
2017-08-15T03:48:05.482Z,22.4
2017-08-15T03:50:05.194Z,22.4
2017-08-15T03:52:04.914Z,22.4
2017-08-15T03:54:04.958Z,22.4
2017-08-15T03:56:07.202Z,22.3
2017-08-15T03:58:04.904Z,22.3
2017-08-15T04:00:08.197Z,22.3
2017-08-15T04:02:05.524Z,22.3
2017-08-15T04:04:07.766Z,22.3
2017-08-15T04:06:05.682Z,22.3
2017-08-15T04:08:15.500Z,22.3
2017-08-15T04:10:05.182Z,22.3
2017-08-15T04:12:05.139Z,22.3
2017-08-15T04:14:09.954Z,22.3
2017-08-15T04:16:04.711Z,22.3
2017-08-15T04:18:05.165Z,22.3
2017-08-15T04:20:05.001Z,22.3
2017-08-15T04:22:04.746Z,22.3
2017-08-15T04:24:05.496Z,22.3
2017-08-15T04:26:10.300Z,22.3
2017-08-15T04:28:05.039Z,22.2
2017-08-15T04:30:04.892Z,22.2
2017-08-15T04:32:10.649Z,22.2
2017-08-15T04:34:10.409Z,22.3
2017-08-15T04:36:10.956Z,22.3
2017-08-15T04:38:04.887Z,22.3
2017-08-15T04:40:08.139Z,22.2
2017-08-15T04:42:04.879Z,22.2
2017-08-15T04:44:05.767Z,22.2
2017-08-15T04:46:05.500Z,22.3
2017-08-15T04:48:07.947Z,22.2
2017-08-15T04:50:04.701Z,22.2
2017-08-15T04:52:05.461Z,22.2
2017-08-15T04:54:05.199Z,22.2
2017-08-15T04:56:04.907Z,22.2
2017-08-15T04:58:04.674Z,22.3
2017-08-15T05:00:05.804Z,22.2
2017-08-15T05:02:05.542Z,22.2
2017-08-15T05:04:10.404Z,22.2
2017-08-15T05:06:04.750Z,22.2
2017-08-15T05:08:05.477Z,22.2
2017-08-15T05:10:07.739Z,22.2
2017-08-15T05:12:05.618Z,22.2
2017-08-15T05:14:05.431Z,22.2
2017-08-15T05:16:05.496Z,22.2
2017-08-15T05:18:05.567Z,22.3
2017-08-15T05:20:05.253Z,22.3
2017-08-15T05:22:09.979Z,22.3
2017-08-15T05:24:04.708Z,22.3
2017-08-15T05:26:05.393Z,22.3
2017-08-15T05:28:05.106Z,22.3
2017-08-15T05:30:05.074Z,22.3
2017-08-15T05:32:04.974Z,22.3
2017-08-15T05:34:04.624Z,22.4
2017-08-15T05:36:07.934Z,22.3
2017-08-15T05:38:07.187Z,22.4
2017-08-15T05:40:07.439Z,22.4
2017-08-15T05:42:04.871Z,22.4
2017-08-15T05:44:05.558Z,22.4
2017-08-15T05:46:05.328Z,22.4
2017-08-15T05:48:05.363Z,22.4
2017-08-15T05:50:07.598Z,22.5
2017-08-15T05:52:05.345Z,22.4
2017-08-15T05:54:05.334Z,22.5
2017-08-15T05:56:05.037Z,22.6
2017-08-15T05:58:04.752Z,22.6
2017-08-15T06:00:10.652Z,22.7
2017-08-15T06:02:05.452Z,22.7
2017-08-15T06:04:04.831Z,22.7
2017-08-15T06:06:05.097Z,22.8
2017-08-15T06:08:04.800Z,22.8
2017-08-15T06:10:05.550Z,22.8
2017-08-15T06:12:04.793Z,22.9
2017-08-15T06:14:05.447Z,22.9
2017-08-15T06:16:05.210Z,23
2017-08-15T06:18:05.138Z,23
2017-08-15T06:20:07.574Z,23.1
2017-08-15T06:22:05.346Z,23
2017-08-15T06:24:05.089Z,23.1
2017-08-15T06:26:05.312Z,23.2
2017-08-15T06:28:07.660Z,23.2
2017-08-15T06:30:07.550Z,23.2
2017-08-15T06:32:08.924Z,23.2
2017-08-15T06:34:07.619Z,23.3
2017-08-15T06:36:10.615Z,23.3
2017-08-15T06:38:10.134Z,23.3
2017-08-15T06:40:07.406Z,23.3
2017-08-15T06:42:05.244Z,23.3
2017-08-15T06:44:05.512Z,23.3
2017-08-15T06:46:04.771Z,23.3
2017-08-15T06:48:05.824Z,23.3
2017-08-15T06:50:05.554Z,23.3
2017-08-15T06:52:05.465Z,23.3
2017-08-15T06:54:05.205Z,23.3
2017-08-15T06:56:04.964Z,23.3
2017-08-15T06:58:05.762Z,23.3
2017-08-15T07:00:10.030Z,23.3
2017-08-15T07:02:04.655Z,23.3
2017-08-15T07:04:05.505Z,23.3
2017-08-15T07:06:07.212Z,23.3
2017-08-15T07:08:05.581Z,23.3
2017-08-15T07:10:05.062Z,23.3
2017-08-15T07:12:05.142Z,23.3
2017-08-15T07:14:05.116Z,23.3
2017-08-15T07:16:04.737Z,23.4
2017-08-15T07:18:07.263Z,23.4
2017-08-15T07:20:05.018Z,23.3
2017-08-15T07:22:07.299Z,23.4
2017-08-15T07:24:07.706Z,23.4
2017-08-15T07:26:05.676Z,23.4
2017-08-15T07:28:05.451Z,23.4
2017-08-15T07:30:07.743Z,23.4
2017-08-15T07:32:04.987Z,23.4
2017-08-15T07:34:07.110Z,23.4
2017-08-15T07:36:07.622Z,23.4
2017-08-15T07:38:05.494Z,23.4
2017-08-15T07:40:04.690Z,23.4
2017-08-15T07:42:04.930Z,23.4
2017-08-15T07:44:05.191Z,23.4
2017-08-15T07:46:05.456Z,23.4
2017-08-15T07:48:07.312Z,23.4
2017-08-15T07:50:05.606Z,23.4
2017-08-15T07:52:05.419Z,23.4
2017-08-15T07:54:05.418Z,23.4
2017-08-15T07:56:05.164Z,23.4
2017-08-15T07:58:05.325Z,23.4
2017-08-15T08:00:05.950Z,23.4
2017-08-15T08:02:09.781Z,23.4
2017-08-15T08:04:05.597Z,23.4
2017-08-15T08:06:05.543Z,23.4
2017-08-15T08:08:05.278Z,23.4
2017-08-15T08:10:04.977Z,23.4
2017-08-15T08:12:04.904Z,23.4
2017-08-15T08:14:05.661Z,23.4
2017-08-15T08:16:05.335Z,23.4
2017-08-15T08:18:05.267Z,23.4
2017-08-15T08:20:04.921Z,23.4
2017-08-15T08:22:05.608Z,23.4
2017-08-15T08:24:10.803Z,23.4
2017-08-15T08:26:05.569Z,23.4
2017-08-15T08:28:05.050Z,23.4
2017-08-15T08:30:04.727Z,23.4
2017-08-15T08:32:07.955Z,23.4
2017-08-15T08:34:05.183Z,23.4
2017-08-15T08:36:05.172Z,23.4
2017-08-15T08:38:04.908Z,23.4
2017-08-15T08:40:05.607Z,23.4
2017-08-15T08:42:07.928Z,23.4
2017-08-15T08:44:04.764Z,23.4
2017-08-15T08:46:05.056Z,23.4
2017-08-15T08:48:04.740Z,23.3
2017-08-15T08:50:05.407Z,23.4
2017-08-15T08:52:10.232Z,23.4
2017-08-15T08:54:10.072Z,23.4
2017-08-15T08:56:07.824Z,23.4
2017-08-15T08:58:04.732Z,23.4
2017-08-15T09:00:05.540Z,23.3
2017-08-15T09:02:05.224Z,23.4
2017-08-15T09:04:04.957Z,23.4
2017-08-15T09:06:09.818Z,23.3
2017-08-15T09:08:05.530Z,23.4
2017-08-15T09:10:05.310Z,23.3
2017-08-15T09:12:05.128Z,23.3
2017-08-15T09:14:07.430Z,23.3
2017-08-15T09:16:10.161Z,23.3
2017-08-15T09:18:05.107Z,23.3
2017-08-15T09:20:07.453Z,23.3
2017-08-15T09:22:04.723Z,23.3
2017-08-15T09:24:05.555Z,23.3
2017-08-15T09:26:05.273Z,23.3
2017-08-15T09:28:04.945Z,23.3
2017-08-15T09:30:04.830Z,23.3
2017-08-15T09:32:05.648Z,23.3
2017-08-15T09:34:07.924Z,23.3
2017-08-15T09:36:09.868Z,23.3
2017-08-15T09:38:05.604Z,23.3
2017-08-15T09:40:07.371Z,23.3
2017-08-15T09:42:05.076Z,23.3
2017-08-15T09:44:04.741Z,23.3
2017-08-15T09:46:05.398Z,23.3
2017-08-15T09:48:05.449Z,23.3
2017-08-15T09:50:05.119Z,23.3
2017-08-15T09:52:07.369Z,23.3
2017-08-15T09:54:05.296Z,23.3
2017-08-15T09:56:05.050Z,23.3
2017-08-15T09:58:04.876Z,23.3
2017-08-15T10:00:07.476Z,23.2
2017-08-15T10:02:05.222Z,23.2
2017-08-15T10:04:05.114Z,23.3
2017-08-15T10:06:09.876Z,23.3
2017-08-15T10:08:05.642Z,23.3
2017-08-15T10:10:05.675Z,23.3
2017-08-15T10:12:13.264Z,23.3
2017-08-15T10:14:05.063Z,23.3
2017-08-15T10:16:07.260Z,23.4
2017-08-15T10:18:05.510Z,23.3
2017-08-15T10:20:05.536Z,23.4
2017-08-15T10:22:07.746Z,23.4
2017-08-15T10:24:05.023Z,23.4
2017-08-15T10:26:07.281Z,23.4
2017-08-15T10:28:07.491Z,23.4
2017-08-15T10:30:05.371Z,23.4
2017-08-15T10:32:07.182Z,23.5
2017-08-15T10:34:08.409Z,23.5
2017-08-15T10:36:05.218Z,23.5
2017-08-15T10:38:04.943Z,23.5
2017-08-15T10:40:04.720Z,23.5
2017-08-15T10:42:11.000Z,23.5
2017-08-15T10:44:04.988Z,23.5
2017-08-15T10:46:04.927Z,23.5
2017-08-15T10:48:07.266Z,23.6
2017-08-15T10:50:10.591Z,23.5
2017-08-15T10:52:05.368Z,23.5
2017-08-15T10:54:05.403Z,23.6
2017-08-15T10:56:05.104Z,23.6
2017-08-15T10:58:05.615Z,23.5
2017-08-15T11:00:07.446Z,23.6
2017-08-15T11:02:07.239Z,23.5
2017-08-15T11:04:06.009Z,23.6
2017-08-15T11:06:07.694Z,23.6
2017-08-15T11:08:05.436Z,23.5
2017-08-15T11:10:05.256Z,23.6
2017-08-15T11:12:10.049Z,23.6
2017-08-15T11:14:04.963Z,23.6
2017-08-15T11:16:04.677Z,23.6
2017-08-15T11:18:05.731Z,23.6
2017-08-15T11:20:05.461Z,23.7
2017-08-15T11:22:05.218Z,23.6
2017-08-15T11:24:10.349Z,23.7
2017-08-15T11:26:05.332Z,23.7
2017-08-15T11:28:10.227Z,23.7
2017-08-15T11:30:10.631Z,23.7
2017-08-15T11:32:05.353Z,23.7
2017-08-15T11:34:05.072Z,23.7
2017-08-15T11:36:05.422Z,23.7
2017-08-15T11:38:05.166Z,23.7
2017-08-15T11:40:12.680Z,23.7
2017-08-15T11:42:10.859Z,23.7
2017-08-15T11:44:04.662Z,23.7
2017-08-15T11:46:05.359Z,23.7
2017-08-15T11:48:05.334Z,23.7
2017-08-15T11:50:09.754Z,23.7
2017-08-15T11:52:10.614Z,23.7
2017-08-15T11:54:05.487Z,23.7
2017-08-15T11:56:05.310Z,23.8
2017-08-15T11:58:05.097Z,23.8
2017-08-15T12:00:05.388Z,23.7
2017-08-15T12:02:04.830Z,23.7
2017-08-15T12:04:07.996Z,23.8
2017-08-15T12:06:05.410Z,23.7
2017-08-15T12:08:04.779Z,23.7
2017-08-15T12:10:05.493Z,23.8
2017-08-15T12:12:05.542Z,23.8
2017-08-15T12:14:05.455Z,23.8
2017-08-15T12:16:05.172Z,23.7
2017-08-15T12:18:07.648Z,23.7
2017-08-15T12:20:05.376Z,23.8
2017-08-15T12:22:05.129Z,23.7
2017-08-15T12:24:07.591Z,23.8
2017-08-15T12:26:05.473Z,23.8
2017-08-15T12:28:05.290Z,23.8
2017-08-15T12:30:07.599Z,23.8
2017-08-15T12:32:05.522Z,23.7
2017-08-15T12:34:05.110Z,23.8
2017-08-15T12:36:07.363Z,23.8
2017-08-15T12:38:07.637Z,23.8
2017-08-15T12:40:07.940Z,23.8
2017-08-15T12:42:04.911Z,23.8
2017-08-15T12:44:07.166Z,23.8
2017-08-15T12:46:07.481Z,23.8
2017-08-15T12:48:04.732Z,23.8
2017-08-15T12:50:08.053Z,23.8
2017-08-15T12:52:04.771Z,23.8
2017-08-15T12:54:05.689Z,23.8
2017-08-15T12:56:05.355Z,23.8
2017-08-15T12:58:05.630Z,23.8
2017-08-15T13:00:10.583Z,23.8
2017-08-15T13:02:05.358Z,23.8
2017-08-15T13:04:05.280Z,23.8
2017-08-15T13:06:05.089Z,23.9
2017-08-15T13:08:04.886Z,23.8
2017-08-15T13:10:05.587Z,23.8
2017-08-15T13:12:05.756Z,23.8
2017-08-15T13:14:05.490Z,23.8
2017-08-15T13:16:05.346Z,23.9
2017-08-15T13:18:05.615Z,23.9
2017-08-15T13:20:05.332Z,23.8
2017-08-15T13:22:07.587Z,23.9
2017-08-15T13:24:04.851Z,23.9
2017-08-15T13:26:05.578Z,23.9
2017-08-15T13:28:05.330Z,23.9
2017-08-15T13:30:05.111Z,23.9
2017-08-15T13:32:05.116Z,23.9
2017-08-15T13:34:05.634Z,23.9
2017-08-15T13:36:08.045Z,23.9
2017-08-15T13:38:07.389Z,23.9
2017-08-15T13:40:05.152Z,23.9
2017-08-15T13:42:04.876Z,23.9
2017-08-15T13:44:05.555Z,23.9
2017-08-15T13:46:05.335Z,23.9
2017-08-15T13:48:05.046Z,23.9
2017-08-15T13:50:04.741Z,23.9
2017-08-15T13:52:05.236Z,23.9
2017-08-15T13:54:04.933Z,23.9
2017-08-15T13:56:04.695Z,23.9
2017-08-15T13:58:05.469Z,23.9
2017-08-15T14:00:07.697Z,23.9
2017-08-15T14:02:05.407Z,23.9
2017-08-15T14:04:07.771Z,23.9
2017-08-15T14:06:13.111Z,23.9
2017-08-15T14:08:04.836Z,23.9
2017-08-15T14:10:05.638Z,23.9
2017-08-15T14:12:05.340Z,23.9
2017-08-15T14:14:05.021Z,23.9
2017-08-15T14:16:05.310Z,23.9
2017-08-15T14:18:05.250Z,23.9
2017-08-15T14:20:05.517Z,23.9
2017-08-15T14:22:05.265Z,23.9
2017-08-15T14:24:05.226Z,23.9
2017-08-15T14:26:05.378Z,23.9
2017-08-15T14:28:07.174Z,23.9
2017-08-15T14:30:04.865Z,23.9
2017-08-15T14:32:05.546Z,23.9
2017-08-15T14:34:05.270Z,23.9
2017-08-15T14:36:07.508Z,23.9
2017-08-15T14:38:05.286Z,23.9
2017-08-15T14:40:10.168Z,23.9
2017-08-15T14:42:04.906Z,23.9
2017-08-15T14:44:04.646Z,23.9
2017-08-15T14:46:05.365Z,23.9
2017-08-15T14:48:05.100Z,23.9
2017-08-15T14:50:04.804Z,23.9
2017-08-15T14:52:05.644Z,23.9
2017-08-15T14:54:05.479Z,23.9
2017-08-15T14:56:05.202Z,23.9
2017-08-15T14:58:05.037Z,23.9
2017-08-15T15:00:05.309Z,23.9
2017-08-15T15:02:05.558Z,23.9
2017-08-15T15:04:05.335Z,23.9
2017-08-15T15:06:04.943Z,23.9
2017-08-15T15:08:07.268Z,23.9
2017-08-15T15:10:07.615Z,24
2017-08-15T15:12:07.909Z,24
2017-08-15T15:14:04.729Z,23.9
2017-08-15T15:16:05.535Z,24
2017-08-15T15:18:05.507Z,23.9
2017-08-15T15:20:05.215Z,24
2017-08-15T15:22:04.928Z,24
2017-08-15T15:24:04.782Z,23.9
2017-08-15T15:26:04.633Z,23.9
2017-08-15T15:28:05.397Z,24
2017-08-15T15:30:07.726Z,24
2017-08-15T15:32:05.502Z,24
2017-08-15T15:34:04.784Z,24
2017-08-15T15:36:05.549Z,24
2017-08-15T15:38:05.292Z,24
2017-08-15T15:40:04.840Z,24
2017-08-15T15:42:08.372Z,24.1
2017-08-15T15:44:05.410Z,24
2017-08-15T15:46:08.178Z,24.2
2017-08-15T15:48:05.196Z,24.1
2017-08-15T15:50:04.937Z,24.2
2017-08-15T15:52:04.695Z,24.2
2017-08-15T15:54:04.664Z,24.2
2017-08-15T15:56:04.744Z,24.2
2017-08-15T15:58:05.678Z,24.2
2017-08-15T16:00:05.635Z,24.2
2017-08-15T16:02:05.399Z,24.3
2017-08-15T16:04:04.722Z,24.3
2017-08-15T16:06:05.027Z,24.3
2017-08-15T16:08:07.884Z,24.3
2017-08-15T16:10:08.116Z,24.3
2017-08-15T16:12:04.933Z,24.3
2017-08-15T16:14:05.150Z,24.3
2017-08-15T16:16:04.869Z,24.3
2017-08-15T16:18:04.802Z,24.3
2017-08-15T16:20:08.051Z,24.3
2017-08-15T16:22:04.937Z,24.3
2017-08-15T16:24:05.013Z,24.3
2017-08-15T16:26:04.716Z,24.3
2017-08-15T16:28:08.830Z,24.3
2017-08-15T16:30:06.307Z,24.3
2017-08-15T16:32:05.558Z,24.3
2017-08-15T16:34:05.324Z,24.3
2017-08-15T16:36:07.721Z,24.3
2017-08-15T16:38:07.961Z,24.3
2017-08-15T16:40:05.204Z,24.3
2017-08-15T16:42:10.317Z,24.3
2017-08-15T16:44:05.799Z,24.3
2017-08-15T16:46:08.019Z,24.3
2017-08-15T16:48:07.525Z,24.3
2017-08-15T16:50:07.415Z,24.3
2017-08-15T16:52:05.169Z,24.3
2017-08-15T16:54:05.423Z,24.3
2017-08-15T16:56:05.163Z,24.3
2017-08-15T16:58:05.006Z,24.3
2017-08-15T17:00:04.881Z,24.3
2017-08-15T17:02:05.642Z,24.3
2017-08-15T17:04:05.491Z,24.3
2017-08-15T17:06:05.519Z,24.3
2017-08-15T17:08:05.261Z,24.3
2017-08-15T17:10:04.956Z,24.3
2017-08-15T17:12:04.907Z,24.3
2017-08-15T17:14:07.667Z,24.3
2017-08-15T17:16:04.947Z,24.3
2017-08-15T17:18:07.528Z,24.3
2017-08-15T17:20:07.792Z,24.3
2017-08-15T17:22:05.497Z,24.3
2017-08-15T17:24:09.956Z,24.3
2017-08-15T17:26:04.617Z,24.4
2017-08-15T17:28:05.420Z,24.4
2017-08-15T17:30:10.375Z,24.4
2017-08-15T17:32:05.043Z,24.4
2017-08-15T17:34:04.928Z,24.4
2017-08-15T17:36:05.000Z,24.4
2017-08-15T17:38:05.422Z,24.3
2017-08-15T17:40:05.122Z,24.3
2017-08-15T17:42:05.005Z,24.3
2017-08-15T17:44:04.713Z,24.3
2017-08-15T17:46:07.965Z,24.3
2017-08-15T17:48:10.116Z,24.3
2017-08-15T17:50:04.975Z,24.3
2017-08-15T17:52:04.683Z,24.3
2017-08-15T17:54:05.610Z,24.3
2017-08-15T17:56:05.322Z,24.3
2017-08-15T17:58:05.145Z,24.3
2017-08-15T18:00:10.045Z,24.3
2017-08-15T18:02:04.800Z,24.3
2017-08-15T18:04:05.597Z,24.3
2017-08-15T18:06:18.612Z,24.3
2017-08-15T18:08:06.210Z,24.3
2017-08-15T18:10:04.701Z,24.3
2017-08-15T18:12:10.206Z,24.3
2017-08-15T18:14:05.435Z,24.3
2017-08-15T18:16:04.910Z,24.3
2017-08-15T18:18:10.133Z,24.2
2017-08-15T18:20:07.570Z,24.3
2017-08-15T18:22:05.325Z,24.2
2017-08-15T18:24:05.394Z,24.3
2017-08-15T18:26:04.901Z,24.2
2017-08-15T18:28:04.631Z,24.2
2017-08-15T18:30:05.383Z,24.3
2017-08-15T18:32:05.614Z,24.2
2017-08-15T18:34:05.363Z,24.2
2017-08-15T18:36:07.940Z,24.2
2017-08-15T18:38:04.897Z,24.2
2017-08-15T18:40:05.624Z,24.2
2017-08-15T18:42:05.504Z,24.2
2017-08-15T18:44:05.248Z,24.3
2017-08-15T18:46:04.980Z,24.3
2017-08-15T18:48:07.239Z,24.3
2017-08-15T18:50:10.049Z,24.3
2017-08-15T18:52:04.883Z,24.3
2017-08-15T18:54:05.703Z,24.3
2017-08-15T18:56:05.451Z,24.3
2017-08-15T18:58:05.185Z,24.3
2017-08-15T19:00:05.129Z,24.2
2017-08-15T19:02:04.817Z,24.3
2017-08-15T19:04:05.515Z,24.2
2017-08-15T19:06:05.016Z,24.3
2017-08-15T19:08:04.741Z,24.3
2017-08-15T19:10:10.497Z,24.2
2017-08-15T19:12:05.207Z,24.2
2017-08-15T19:14:05.473Z,24.2
2017-08-15T19:16:05.232Z,24.2
2017-08-15T19:18:05.295Z,24.2
2017-08-15T19:20:07.494Z,24.2
2017-08-15T19:22:07.779Z,24.2
2017-08-15T19:24:05.258Z,24.2
2017-08-15T19:26:05.045Z,24.2
2017-08-15T19:28:04.887Z,24.2
2017-08-15T19:30:05.778Z,24.2
2017-08-15T19:32:05.104Z,24.2
2017-08-15T19:34:04.849Z,24.2
2017-08-15T19:36:05.682Z,24.2
2017-08-15T19:38:07.909Z,24.2
2017-08-15T19:40:05.624Z,24.2
2017-08-15T19:42:08.061Z,24.2
2017-08-15T19:44:07.343Z,24.2
2017-08-15T19:46:05.056Z,24.2
2017-08-15T19:48:05.183Z,24.2
2017-08-15T19:50:04.911Z,24.2
2017-08-15T19:52:07.213Z,24.2
2017-08-15T19:54:05.045Z,24.1
2017-08-15T19:56:04.937Z,24.1
2017-08-15T19:58:04.613Z,24.1
2017-08-15T20:00:05.376Z,24.2
2017-08-15T20:02:05.090Z,24.1
2017-08-15T20:04:04.810Z,24.1
2017-08-15T20:06:05.540Z,24.1
2017-08-15T20:08:05.326Z,24.1
2017-08-15T20:10:10.097Z,24.1
2017-08-15T20:12:07.658Z,24.2
2017-08-15T20:14:04.923Z,24.1
2017-08-15T20:16:04.841Z,24.1
2017-08-15T20:18:04.754Z,24.1
2017-08-15T20:20:05.818Z,24.1
2017-08-15T20:22:05.583Z,24.1
2017-08-15T20:24:05.324Z,24.1
2017-08-15T20:26:07.596Z,24.1
2017-08-15T20:28:05.373Z,24.1
2017-08-15T20:30:04.840Z,24.1
2017-08-15T20:32:10.165Z,24.1
2017-08-15T20:34:04.941Z,24.1
2017-08-15T20:36:07.330Z,24.1
2017-08-15T20:38:10.107Z,24
2017-08-15T20:40:07.386Z,24
2017-08-15T20:42:07.692Z,24.1
2017-08-15T20:44:05.004Z,24
2017-08-15T20:46:04.698Z,24
2017-08-15T20:48:05.277Z,24
2017-08-15T20:50:05.036Z,24
2017-08-15T20:52:04.741Z,24
2017-08-15T20:54:05.486Z,24
2017-08-15T20:56:05.194Z,24
2017-08-15T20:58:07.490Z,24
2017-08-15T21:00:05.397Z,24
2017-08-15T21:02:05.165Z,24
2017-08-15T21:04:08.159Z,24
2017-08-15T21:06:05.068Z,24
2017-08-15T21:08:04.799Z,24
2017-08-15T21:10:05.581Z,24
2017-08-15T21:12:05.520Z,24
2017-08-15T21:14:04.754Z,24
2017-08-15T21:16:05.006Z,24
2017-08-15T21:18:07.476Z,24
2017-08-15T21:20:05.182Z,24
2017-08-15T21:22:10.472Z,24
2017-08-15T21:24:05.659Z,24
2017-08-15T21:26:07.917Z,24
2017-08-15T21:28:07.137Z,24
2017-08-15T21:30:07.518Z,24
2017-08-15T21:32:10.464Z,24
2017-08-15T21:34:05.257Z,24
2017-08-15T21:36:10.161Z,24
2017-08-15T21:38:05.133Z,24
2017-08-15T21:40:12.488Z,24
2017-08-15T21:42:05.520Z,24
2017-08-15T21:44:06.187Z,24
2017-08-15T21:46:07.769Z,24
2017-08-15T21:48:05.646Z,24
2017-08-15T21:50:05.350Z,24
2017-08-15T21:52:07.653Z,24
2017-08-15T21:54:05.337Z,24
2017-08-15T21:56:07.578Z,24
2017-08-15T21:58:04.863Z,24
2017-08-15T22:00:10.341Z,24
2017-08-15T22:02:12.666Z,24
2017-08-15T22:04:07.972Z,24
2017-08-15T22:06:04.976Z,24
2017-08-15T22:08:04.747Z,24
2017-08-15T22:10:08.072Z,24
2017-08-15T22:12:04.933Z,24
2017-08-15T22:14:12.254Z,24
2017-08-15T22:16:05.401Z,24
2017-08-15T22:18:07.827Z,24
2017-08-15T22:20:05.691Z,24
2017-08-15T22:22:05.499Z,24
2017-08-15T22:24:05.233Z,24
2017-08-15T22:26:04.939Z,24
2017-08-15T22:28:04.709Z,24
2017-08-15T22:30:05.744Z,24
2017-08-15T22:32:05.475Z,24
2017-08-15T22:34:04.732Z,24
2017-08-15T22:36:05.624Z,24
2017-08-15T22:38:07.841Z,24
2017-08-15T22:40:05.510Z,24
2017-08-15T22:42:05.358Z,24
2017-08-15T22:44:15.148Z,24
2017-08-15T22:46:04.832Z,24
2017-08-15T22:48:11.023Z,24
2017-08-15T22:50:04.779Z,24
2017-08-15T22:52:05.182Z,24
2017-08-15T22:54:05.521Z,24
2017-08-15T22:56:07.847Z,24
2017-08-15T22:58:05.602Z,24
2017-08-15T23:00:05.366Z,24
2017-08-15T23:02:05.083Z,24
2017-08-15T23:04:04.800Z,24
2017-08-15T23:06:05.506Z,24
2017-08-15T23:08:05.212Z,24
2017-08-15T23:10:04.932Z,24
2017-08-15T23:12:04.725Z,24
2017-08-15T23:14:05.452Z,24
2017-08-15T23:16:05.247Z,24
2017-08-15T23:18:07.728Z,24
2017-08-15T23:20:05.440Z,24
2017-08-15T23:22:05.189Z,24
2017-08-15T23:24:05.095Z,24
2017-08-15T23:26:07.348Z,24
2017-08-15T23:28:05.342Z,24
2017-08-15T23:30:10.079Z,24
2017-08-15T23:32:04.763Z,24
2017-08-15T23:34:05.061Z,24
2017-08-15T23:36:05.148Z,24
2017-08-15T23:38:04.905Z,24
2017-08-15T23:40:05.971Z,24
2017-08-15T23:42:04.736Z,24
2017-08-15T23:44:05.536Z,24
2017-08-15T23:46:05.233Z,24
2017-08-15T23:48:05.339Z,24
2017-08-15T23:50:07.606Z,24
2017-08-15T23:52:10.370Z,23.9
2017-08-15T23:54:05.756Z,24
2017-08-15T23:56:05.610Z,24
2017-08-15T23:58:05.328Z,24
